Arlington, KS

10:44 PM CDT on September 04, 2015 (GMT -0500)
APRSWXNET | | Change Station
CLOSE
Current Station
Personal Weather Station
Location: Abbyville, KS
Elevation: 1669 ft
Nearby Weather Stations

Elev 1669 ft 38.09 °N, 98.22 °W | Updated 16 minutes ago

Clear
Clear
78 °F
Feels Like 80 °F
N
6
Wind Variable Wind from SE
Gusts 0.0 mph

Today
High -- | Low -- °F
--% Chance of Precip.
Yesterday
High -- | Low -- °F
Precip. -- in
7:05 AM 7:57 PM
Waning Gibbous, 53% visible
Pressure 29.86 in
Visibility 10.0 miles
Clouds Clear
Heat Index 80 °F
Dew Point 64 °F
Humidity 63%
Rainfall in
Snow Depth Not available.
UV 0 out of 12
Pollen 11.80 out of 12
Air Quality Not available.
Flu Activity Not available.
METAR KHUT 050252Z 14010KT 10SM CLR 27/18 A2993 RMK AO2 SLP110 T02670183 53017
Pressure 29.86 in
Visibility 10.0 miles
Clouds Clear
Heat Index 80 °F
Dew Point 64 °F
Humidity 63%
Rainfall in
Snow Depth Not available.
UV 0 out of 12
Pollen 11.80 out of 12
Air Quality Not available.
Flu Activity Not available.
METAR KHUT 050252Z 14010KT 10SM CLR 27/18 A2993 RMK AO2 SLP110 T02670183 53017

10-Day Weather Forecast

×

Almanac

Astronomy

Sep. 04, 2015 Rise Set
Actual Time
Civil Twilight
Nautical Twilight
Astronomical Twilight
Moon
Length of Visible Light
Length of Day
Tomorrow will be .
, % of the Moon is Illuminated

Today's Extremes

State Highs State Lows

Community

WunderPhotos

Upload Photos

1,852,408 photos uploaded!

WunderBlogs® & News

Nearby

Air Quality

  Air Quality AQ Index Pollutant
Not available.

Snow Depth

Station Depth Elevation

Earthquake Activity

City Distance Mag. Time & Date
Minimum magnitude displayed is 2.5.

Coastal Water Temperatures

Place Temperature

Stations

Nearby Weather Stations

Station Location Temp. Windchill Dew Point Humidity Wind Precip. Elev Updated Type